sensor_id;sensor_type;location;lat;lon;timestamp;temperature;humidity
22416;DHT22;12204;50.600;4.608;2023-06-26T00:00:57;28.20;55.60
22416;DHT22;12204;50.600;4.608;2023-06-26T00:06:01;28.20;55.50
22416;DHT22;12204;50.600;4.608;2023-06-26T00:11:06;28.20;55.40
22416;DHT22;12204;50.600;4.608;2023-06-26T00:16:09;28.20;55.50
22416;DHT22;12204;50.600;4.608;2023-06-26T00:21:13;28.20;55.50
22416;DHT22;12204;50.600;4.608;2023-06-26T00:26:18;28.20;55.60
22416;DHT22;12204;50.600;4.608;2023-06-26T00:31:21;28.20;55.50
22416;DHT22;12204;50.600;4.608;2023-06-26T00:36:25;28.20;55.40
22416;DHT22;12204;50.600;4.608;2023-06-26T00:41:29;28.20;55.20
22416;DHT22;12204;50.600;4.608;2023-06-26T00:46:33;28.10;55.20
22416;DHT22;12204;50.600;4.608;2023-06-26T00:51:38;28.10;55.00
22416;DHT22;12204;50.600;4.608;2023-06-26T00:56:42;28.10;54.70
22416;DHT22;12204;50.600;4.608;2023-06-26T01:01:46;28.10;54.30
22416;DHT22;12204;50.600;4.608;2023-06-26T01:06:50;28.10;54.20
22416;DHT22;12204;50.600;4.608;2023-06-26T01:11:55;28.10;54.10
22416;DHT22;12204;50.600;4.608;2023-06-26T01:17:00;28.00;54.00
22416;DHT22;12204;50.600;4.608;2023-06-26T01:22:13;28.00;53.70
22416;DHT22;12204;50.600;4.608;2023-06-26T01:27:24;28.00;53.50
22416;DHT22;12204;50.600;4.608;2023-06-26T01:32:29;28.00;53.10
22416;DHT22;12204;50.600;4.608;2023-06-26T01:37:33;28.00;52.70
22416;DHT22;12204;50.600;4.608;2023-06-26T01:42:39;27.90;52.50
22416;DHT22;12204;50.600;4.608;2023-06-26T01:47:49;27.90;52.50
22416;DHT22;12204;50.600;4.608;2023-06-26T01:53:01;27.90;52.50
22416;DHT22;12204;50.600;4.608;2023-06-26T01:58:10;27.90;52.80
22416;DHT22;12204;50.600;4.608;2023-06-26T02:03:14;27.80;52.90
22416;DHT22;12204;50.600;4.608;2023-06-26T02:08:18;27.80;53.20
22416;DHT22;12204;50.600;4.608;2023-06-26T02:13:25;27.80;53.30
22416;DHT22;12204;50.600;4.608;2023-06-26T02:18:29;27.80;53.50
22416;DHT22;12204;50.600;4.608;2023-06-26T02:23:32;27.80;53.60
22416;DHT22;12204;50.600;4.608;2023-06-26T02:28:37;27.80;53.70
22416;DHT22;12204;50.600;4.608;2023-06-26T02:33:41;27.80;53.70
22416;DHT22;12204;50.600;4.608;2023-06-26T02:38:47;27.70;53.70
22416;DHT22;12204;50.600;4.608;2023-06-26T02:43:51;27.70;53.70
22416;DHT22;12204;50.600;4.608;2023-06-26T02:48:55;27.70;53.70
22416;DHT22;12204;50.600;4.608;2023-06-26T02:54:00;27.70;53.80
22416;DHT22;12204;50.600;4.608;2023-06-26T02:59:06;27.70;53.90
22416;DHT22;12204;50.600;4.608;2023-06-26T03:04:09;27.70;53.90
22416;DHT22;12204;50.600;4.608;2023-06-26T03:09:13;27.70;54.00
22416;DHT22;12204;50.600;4.608;2023-06-26T03:14:20;27.70;54.10
22416;DHT22;12204;50.600;4.608;2023-06-26T03:19:24;27.70;54.20
22416;DHT22;12204;50.600;4.608;2023-06-26T03:24:46;27.70;54.50
22416;DHT22;12204;50.600;4.608;2023-06-26T03:29:52;27.60;54.50
22416;DHT22;12204;50.600;4.608;2023-06-26T03:34:57;27.60;54.80
22416;DHT22;12204;50.600;4.608;2023-06-26T03:40:01;27.60;54.80
22416;DHT22;12204;50.600;4.608;2023-06-26T03:45:08;27.60;54.90
22416;DHT22;12204;50.600;4.608;2023-06-26T03:50:12;27.60;54.90
22416;DHT22;12204;50.600;4.608;2023-06-26T03:55:16;27.60;55.00
22416;DHT22;12204;50.600;4.608;2023-06-26T04:00:22;27.60;55.10
22416;DHT22;12204;50.600;4.608;2023-06-26T04:05:26;27.60;55.10
22416;DHT22;12204;50.600;4.608;2023-06-26T04:10:29;27.60;55.20
22416;DHT22;12204;50.600;4.608;2023-06-26T04:15:34;27.60;55.10
22416;DHT22;12204;50.600;4.608;2023-06-26T04:20:39;27.50;55.20
22416;DHT22;12204;50.600;4.608;2023-06-26T04:26:06;27.50;55.20
22416;DHT22;12204;50.600;4.608;2023-06-26T04:31:11;27.50;55.10
22416;DHT22;12204;50.600;4.608;2023-06-26T04:36:15;27.50;55.10
22416;DHT22;12204;50.600;4.608;2023-06-26T04:41:18;27.50;55.10
22416;DHT22;12204;50.600;4.608;2023-06-26T04:46:23;27.40;55.00
22416;DHT22;12204;50.600;4.608;2023-06-26T04:51:26;27.50;55.00
22416;DHT22;12204;50.600;4.608;2023-06-26T04:56:30;27.50;55.10
22416;DHT22;12204;50.600;4.608;2023-06-26T05:01:35;27.50;55.10
22416;DHT22;12204;50.600;4.608;2023-06-26T05:06:41;27.50;55.10
22416;DHT22;12204;50.600;4.608;2023-06-26T05:11:44;27.50;55.10
22416;DHT22;12204;50.600;4.608;2023-06-26T05:16:49;27.50;55.00
22416;DHT22;12204;50.600;4.608;2023-06-26T05:21:53;27.50;55.10
22416;DHT22;12204;50.600;4.608;2023-06-26T05:26:58;27.50;54.80
22416;DHT22;12204;50.600;4.608;2023-06-26T05:32:04;27.50;55.00
22416;DHT22;12204;50.600;4.608;2023-06-26T05:37:09;27.50;54.90
22416;DHT22;12204;50.600;4.608;2023-06-26T05:42:16;27.50;54.60
22416;DHT22;12204;50.600;4.608;2023-06-26T05:47:21;27.40;54.10
22416;DHT22;12204;50.600;4.608;2023-06-26T05:52:26;27.40;53.50
22416;DHT22;12204;50.600;4.608;2023-06-26T05:57:30;27.40;53.20
22416;DHT22;12204;50.600;4.608;2023-06-26T06:02:36;27.30;53.00
22416;DHT22;12204;50.600;4.608;2023-06-26T06:07:39;27.30;52.80
22416;DHT22;12204;50.600;4.608;2023-06-26T06:12:43;27.30;52.70
22416;DHT22;12204;50.600;4.608;2023-06-26T06:17:48;27.30;52.80
22416;DHT22;12204;50.600;4.608;2023-06-26T06:22:51;27.20;52.80
22416;DHT22;12204;50.600;4.608;2023-06-26T06:27:54;26.60;52.90
22416;DHT22;12204;50.600;4.608;2023-06-26T06:33:02;26.50;52.80
22416;DHT22;12204;50.600;4.608;2023-06-26T06:38:05;26.40;52.80
22416;DHT22;12204;50.600;4.608;2023-06-26T06:43:09;26.30;53.00
22416;DHT22;12204;50.600;4.608;2023-06-26T06:48:13;26.20;52.80
22416;DHT22;12204;50.600;4.608;2023-06-26T06:53:20;26.20;53.40
22416;DHT22;12204;50.600;4.608;2023-06-26T06:58:24;26.00;53.40
22416;DHT22;12204;50.600;4.608;2023-06-26T07:03:29;26.00;53.50
22416;DHT22;12204;50.600;4.608;2023-06-26T07:08:33;26.00;53.80
22416;DHT22;12204;50.600;4.608;2023-06-26T07:13:37;26.10;53.60
22416;DHT22;12204;50.600;4.608;2023-06-26T07:18:41;25.90;53.40
22416;DHT22;12204;50.600;4.608;2023-06-26T07:23:45;25.80;53.60
22416;DHT22;12204;50.600;4.608;2023-06-26T07:28:48;26.00;53.60
22416;DHT22;12204;50.600;4.608;2023-06-26T07:33:53;25.90;53.10
22416;DHT22;12204;50.600;4.608;2023-06-26T07:38:57;25.80;53.00
22416;DHT22;12204;50.600;4.608;2023-06-26T07:44:00;25.80;53.30
22416;DHT22;12204;50.600;4.608;2023-06-26T07:49:05;25.70;53.20
22416;DHT22;12204;50.600;4.608;2023-06-26T07:54:09;25.70;53.50
22416;DHT22;12204;50.600;4.608;2023-06-26T07:59:12;25.70;53.60
22416;DHT22;12204;50.600;4.608;2023-06-26T08:04:18;25.70;53.60
22416;DHT22;12204;50.600;4.608;2023-06-26T08:09:25;25.60;52.90
22416;DHT22;12204;50.600;4.608;2023-06-26T08:14:30;25.50;52.80
22416;DHT22;12204;50.600;4.608;2023-06-26T08:19:36;25.70;52.80
22416;DHT22;12204;50.600;4.608;2023-06-26T08:24:39;25.80;52.80
22416;DHT22;12204;50.600;4.608;2023-06-26T08:29:43;25.90;52.80
22416;DHT22;12204;50.600;4.608;2023-06-26T08:34:48;25.90;52.70
22416;DHT22;12204;50.600;4.608;2023-06-26T08:39:52;25.90;52.60
22416;DHT22;12204;50.600;4.608;2023-06-26T08:44:56;26.00;53.20
22416;DHT22;12204;50.600;4.608;2023-06-26T08:50:07;26.00;53.30
22416;DHT22;12204;50.600;4.608;2023-06-26T08:55:15;26.00;52.70
22416;DHT22;12204;50.600;4.608;2023-06-26T09:00:20;26.10;53.00
22416;DHT22;12204;50.600;4.608;2023-06-26T09:05:25;26.10;52.70
22416;DHT22;12204;50.600;4.608;2023-06-26T09:10:30;26.10;52.40
22416;DHT22;12204;50.600;4.608;2023-06-26T09:15:38;26.00;52.50
22416;DHT22;12204;50.600;4.608;2023-06-26T09:20:43;26.00;52.50
22416;DHT22;12204;50.600;4.608;2023-06-26T09:25:47;26.00;52.30
22416;DHT22;12204;50.600;4.608;2023-06-26T09:30:51;26.00;53.00
22416;DHT22;12204;50.600;4.608;2023-06-26T09:35:56;26.00;52.80
22416;DHT22;12204;50.600;4.608;2023-06-26T09:41:00;26.00;52.50
22416;DHT22;12204;50.600;4.608;2023-06-26T09:46:03;26.00;51.50
22416;DHT22;12204;50.600;4.608;2023-06-26T09:51:09;26.00;50.60
22416;DHT22;12204;50.600;4.608;2023-06-26T09:56:16;26.00;50.30
22416;DHT22;12204;50.600;4.608;2023-06-26T10:01:20;25.90;50.30
22416;DHT22;12204;50.600;4.608;2023-06-26T10:06:28;26.00;50.30
22416;DHT22;12204;50.600;4.608;2023-06-26T10:11:39;26.00;50.10
22416;DHT22;12204;50.600;4.608;2023-06-26T10:16:48;26.00;50.00
22416;DHT22;12204;50.600;4.608;2023-06-26T10:21:55;26.00;50.10
22416;DHT22;12204;50.600;4.608;2023-06-26T10:27:03;26.00;50.40
22416;DHT22;12204;50.600;4.608;2023-06-26T10:32:12;26.00;49.20
22416;DHT22;12204;50.600;4.608;2023-06-26T10:37:17;26.00;49.40
22416;DHT22;12204;50.600;4.608;2023-06-26T10:42:35;26.00;49.50
22416;DHT22;12204;50.600;4.608;2023-06-26T10:47:40;26.00;49.50
22416;DHT22;12204;50.600;4.608;2023-06-26T10:52:46;26.00;49.60
22416;DHT22;12204;50.600;4.608;2023-06-26T10:58:31;26.10;49.20
22416;DHT22;12204;50.600;4.608;2023-06-26T11:03:37;26.00;48.90
22416;DHT22;12204;50.600;4.608;2023-06-26T11:08:49;26.00;49.10
22416;DHT22;12204;50.600;4.608;2023-06-26T11:13:55;26.00;48.70
22416;DHT22;12204;50.600;4.608;2023-06-26T11:19:00;26.00;48.60
22416;DHT22;12204;50.600;4.608;2023-06-26T11:24:06;26.00;48.50
22416;DHT22;12204;50.600;4.608;2023-06-26T11:29:11;26.00;48.60
22416;DHT22;12204;50.600;4.608;2023-06-26T11:34:15;26.00;48.60
22416;DHT22;12204;50.600;4.608;2023-06-26T11:39:20;26.00;48.70
22416;DHT22;12204;50.600;4.608;2023-06-26T11:44:23;26.00;48.60
22416;DHT22;12204;50.600;4.608;2023-06-26T11:49:28;26.10;48.70
22416;DHT22;12204;50.600;4.608;2023-06-26T11:54:33;26.10;49.00
22416;DHT22;12204;50.600;4.608;2023-06-26T11:59:38;26.00;48.20
22416;DHT22;12204;50.600;4.608;2023-06-26T12:04:43;26.10;48.00
22416;DHT22;12204;50.600;4.608;2023-06-26T12:09:49;26.00;47.30
22416;DHT22;12204;50.600;4.608;2023-06-26T12:14:53;26.10;46.90
22416;DHT22;12204;50.600;4.608;2023-06-26T12:19:56;26.00;47.00
22416;DHT22;12204;50.600;4.608;2023-06-26T12:25:01;26.00;46.70
22416;DHT22;12204;50.600;4.608;2023-06-26T12:30:06;26.00;47.10
22416;DHT22;12204;50.600;4.608;2023-06-26T12:35:10;26.00;47.00
22416;DHT22;12204;50.600;4.608;2023-06-26T12:40:18;26.00;46.50
22416;DHT22;12204;50.600;4.608;2023-06-26T12:45:24;26.00;46.20
22416;DHT22;12204;50.600;4.608;2023-06-26T12:50:37;26.00;45.70
22416;DHT22;12204;50.600;4.608;2023-06-26T12:55:47;25.90;46.00
22416;DHT22;12204;50.600;4.608;2023-06-26T13:00:51;26.00;45.90
22416;DHT22;12204;50.600;4.608;2023-06-26T13:05:55;26.00;46.30
22416;DHT22;12204;50.600;4.608;2023-06-26T13:11:00;25.90;46.00
22416;DHT22;12204;50.600;4.608;2023-06-26T13:16:04;26.00;46.00
22416;DHT22;12204;50.600;4.608;2023-06-26T13:21:08;26.00;46.20
22416;DHT22;12204;50.600;4.608;2023-06-26T13:26:12;26.00;46.00
22416;DHT22;12204;50.600;4.608;2023-06-26T13:31:36;26.00;46.40
22416;DHT22;12204;50.600;4.608;2023-06-26T13:36:40;26.00;46.80
22416;DHT22;12204;50.600;4.608;2023-06-26T13:41:46;26.00;46.80
22416;DHT22;12204;50.600;4.608;2023-06-26T13:46:49;26.10;46.80
22416;DHT22;12204;50.600;4.608;2023-06-26T13:51:53;26.10;47.20
22416;DHT22;12204;50.600;4.608;2023-06-26T13:56:58;26.10;46.60
22416;DHT22;12204;50.600;4.608;2023-06-26T14:02:04;26.10;46.30
22416;DHT22;12204;50.600;4.608;2023-06-26T14:07:09;26.10;46.40
22416;DHT22;12204;50.600;4.608;2023-06-26T14:12:33;26.10;46.50
22416;DHT22;12204;50.600;4.608;2023-06-26T14:17:37;26.20;46.90
22416;DHT22;12204;50.600;4.608;2023-06-26T14:22:42;26.20;46.50
22416;DHT22;12204;50.600;4.608;2023-06-26T14:27:48;26.10;46.00
22416;DHT22;12204;50.600;4.608;2023-06-26T14:32:51;26.10;45.90
22416;DHT22;12204;50.600;4.608;2023-06-26T14:37:55;26.10;46.00
22416;DHT22;12204;50.600;4.608;2023-06-26T14:42:59;26.20;46.10
22416;DHT22;12204;50.600;4.608;2023-06-26T14:48:04;26.20;46.30
22416;DHT22;12204;50.600;4.608;2023-06-26T14:53:08;26.20;46.00
22416;DHT22;12204;50.600;4.608;2023-06-26T14:58:12;26.20;46.00
22416;DHT22;12204;50.600;4.608;2023-06-26T15:03:16;26.20;45.80
22416;DHT22;12204;50.600;4.608;2023-06-26T15:08:19;26.20;45.40
22416;DHT22;12204;50.600;4.608;2023-06-26T15:13:24;26.20;45.10
22416;DHT22;12204;50.600;4.608;2023-06-26T15:18:28;26.30;45.10
22416;DHT22;12204;50.600;4.608;2023-06-26T15:23:31;26.30;44.70
22416;DHT22;12204;50.600;4.608;2023-06-26T15:28:37;26.30;44.40
22416;DHT22;12204;50.600;4.608;2023-06-26T15:33:40;26.30;43.40
22416;DHT22;12204;50.600;4.608;2023-06-26T15:38:44;26.30;43.40
22416;DHT22;12204;50.600;4.608;2023-06-26T15:43:49;26.30;43.10
22416;DHT22;12204;50.600;4.608;2023-06-26T15:48:52;26.30;43.20
22416;DHT22;12204;50.600;4.608;2023-06-26T15:53:56;26.30;43.90
22416;DHT22;12204;50.600;4.608;2023-06-26T15:59:00;26.30;43.30
22416;DHT22;12204;50.600;4.608;2023-06-26T16:04:04;26.30;43.30
22416;DHT22;12204;50.600;4.608;2023-06-26T16:09:08;26.30;43.10
22416;DHT22;12204;50.600;4.608;2023-06-26T16:14:13;26.30;43.60
22416;DHT22;12204;50.600;4.608;2023-06-26T16:19:17;26.30;43.30
22416;DHT22;12204;50.600;4.608;2023-06-26T16:24:21;26.30;43.50
22416;DHT22;12204;50.600;4.608;2023-06-26T16:29:26;26.30;43.60
22416;DHT22;12204;50.600;4.608;2023-06-26T16:34:29;26.30;43.40
22416;DHT22;12204;50.600;4.608;2023-06-26T16:39:33;26.30;43.50
22416;DHT22;12204;50.600;4.608;2023-06-26T16:44:38;26.30;43.80
22416;DHT22;12204;50.600;4.608;2023-06-26T16:49:42;26.30;44.00
22416;DHT22;12204;50.600;4.608;2023-06-26T16:54:45;26.30;44.30
22416;DHT22;12204;50.600;4.608;2023-06-26T16:59:50;26.30;44.40
22416;DHT22;12204;50.600;4.608;2023-06-26T17:04:54;26.30;44.70
22416;DHT22;12204;50.600;4.608;2023-06-26T17:10:01;26.30;44.60
22416;DHT22;12204;50.600;4.608;2023-06-26T17:15:07;26.30;44.90
22416;DHT22;12204;50.600;4.608;2023-06-26T17:20:11;26.20;44.70
22416;DHT22;12204;50.600;4.608;2023-06-26T17:25:15;26.20;45.10
22416;DHT22;12204;50.600;4.608;2023-06-26T17:30:20;26.20;45.60
22416;DHT22;12204;50.600;4.608;2023-06-26T17:35:25;26.20;46.10
22416;DHT22;12204;50.600;4.608;2023-06-26T17:40:28;26.20;46.70
22416;DHT22;12204;50.600;4.608;2023-06-26T17:45:33;26.30;47.20
22416;DHT22;12204;50.600;4.608;2023-06-26T17:50:38;26.30;47.40
22416;DHT22;12204;50.600;4.608;2023-06-26T17:55:42;26.30;47.80
22416;DHT22;12204;50.600;4.608;2023-06-26T18:00:47;26.30;47.90
22416;DHT22;12204;50.600;4.608;2023-06-26T18:05:51;26.20;48.10
22416;DHT22;12204;50.600;4.608;2023-06-26T18:10:54;26.20;48.60
22416;DHT22;12204;50.600;4.608;2023-06-26T18:15:59;26.30;49.10
22416;DHT22;12204;50.600;4.608;2023-06-26T18:21:02;26.30;49.20
22416;DHT22;12204;50.600;4.608;2023-06-26T18:26:06;26.30;49.20
22416;DHT22;12204;50.600;4.608;2023-06-26T18:31:11;26.30;49.30
22416;DHT22;12204;50.600;4.608;2023-06-26T18:36:15;26.30;49.20
22416;DHT22;12204;50.600;4.608;2023-06-26T18:41:19;26.30;49.80
22416;DHT22;12204;50.600;4.608;2023-06-26T18:46:24;26.30;49.90
22416;DHT22;12204;50.600;4.608;2023-06-26T18:51:29;26.30;50.00
22416;DHT22;12204;50.600;4.608;2023-06-26T18:56:33;26.30;50.10
22416;DHT22;12204;50.600;4.608;2023-06-26T19:01:38;26.30;50.40
22416;DHT22;12204;50.600;4.608;2023-06-26T19:06:42;26.30;50.50
22416;DHT22;12204;50.600;4.608;2023-06-26T19:11:45;26.40;50.50
22416;DHT22;12204;50.600;4.608;2023-06-26T19:16:52;26.40;50.60
22416;DHT22;12204;50.600;4.608;2023-06-26T19:21:55;26.40;50.80
22416;DHT22;12204;50.600;4.608;2023-06-26T19:26:59;26.40;50.70
22416;DHT22;12204;50.600;4.608;2023-06-26T19:32:04;26.40;50.60
22416;DHT22;12204;50.600;4.608;2023-06-26T19:37:10;26.40;50.70
22416;DHT22;12204;50.600;4.608;2023-06-26T19:42:14;26.40;50.80
22416;DHT22;12204;50.600;4.608;2023-06-26T19:47:19;26.40;50.80
22416;DHT22;12204;50.600;4.608;2023-06-26T19:52:22;26.40;50.50
22416;DHT22;12204;50.600;4.608;2023-06-26T19:57:26;26.40;50.80
22416;DHT22;12204;50.600;4.608;2023-06-26T20:02:31;26.40;50.90
22416;DHT22;12204;50.600;4.608;2023-06-26T20:07:34;26.40;50.90
22416;DHT22;12204;50.600;4.608;2023-06-26T20:12:38;26.40;51.00
22416;DHT22;12204;50.600;4.608;2023-06-26T20:17:43;26.40;51.10
22416;DHT22;12204;50.600;4.608;2023-06-26T20:22:47;26.50;51.30
22416;DHT22;12204;50.600;4.608;2023-06-26T20:27:50;26.50;51.30
22416;DHT22;12204;50.600;4.608;2023-06-26T20:32:55;26.50;51.40
22416;DHT22;12204;50.600;4.608;2023-06-26T20:37:59;26.50;51.50
22416;DHT22;12204;50.600;4.608;2023-06-26T20:43:03;26.50;51.70
22416;DHT22;12204;50.600;4.608;2023-06-26T20:48:10;26.50;51.70
22416;DHT22;12204;50.600;4.608;2023-06-26T20:53:15;26.50;51.80
22416;DHT22;12204;50.600;4.608;2023-06-26T20:58:19;26.50;51.80
22416;DHT22;12204;50.600;4.608;2023-06-26T21:03:24;26.50;51.90
22416;DHT22;12204;50.600;4.608;2023-06-26T21:08:27;26.40;51.80
22416;DHT22;12204;50.600;4.608;2023-06-26T21:13:31;26.40;51.80
22416;DHT22;12204;50.600;4.608;2023-06-26T21:18:35;26.50;52.30
22416;DHT22;12204;50.600;4.608;2023-06-26T21:23:39;26.50;52.20
22416;DHT22;12204;50.600;4.608;2023-06-26T21:28:42;26.50;52.20
22416;DHT22;12204;50.600;4.608;2023-06-26T21:33:47;26.60;52.20
22416;DHT22;12204;50.600;4.608;2023-06-26T21:38:51;26.60;52.10
22416;DHT22;12204;50.600;4.608;2023-06-26T21:43:54;26.60;52.00
22416;DHT22;12204;50.600;4.608;2023-06-26T21:48:59;26.60;52.00
22416;DHT22;12204;50.600;4.608;2023-06-26T21:54:02;26.60;52.00
22416;DHT22;12204;50.600;4.608;2023-06-26T21:59:06;26.60;52.00
22416;DHT22;12204;50.600;4.608;2023-06-26T22:04:11;26.60;52.10
22416;DHT22;12204;50.600;4.608;2023-06-26T22:09:15;26.60;52.20
22416;DHT22;12204;50.600;4.608;2023-06-26T22:14:19;26.60;52.10
22416;DHT22;12204;50.600;4.608;2023-06-26T22:19:23;26.60;52.00
22416;DHT22;12204;50.600;4.608;2023-06-26T22:24:27;26.60;52.10
22416;DHT22;12204;50.600;4.608;2023-06-26T22:29:30;26.60;52.10
22416;DHT22;12204;50.600;4.608;2023-06-26T22:34:35;26.70;52.00
22416;DHT22;12204;50.600;4.608;2023-06-26T22:39:39;26.70;52.10
22416;DHT22;12204;50.600;4.608;2023-06-26T22:44:42;26.70;52.10
22416;DHT22;12204;50.600;4.608;2023-06-26T22:49:47;26.70;52.30
22416;DHT22;12204;50.600;4.608;2023-06-26T22:54:50;26.70;52.20
22416;DHT22;12204;50.600;4.608;2023-06-26T22:59:54;26.70;52.10
22416;DHT22;12204;50.600;4.608;2023-06-26T23:04:59;26.70;51.90
22416;DHT22;12204;50.600;4.608;2023-06-26T23:10:02;26.70;52.00
22416;DHT22;12204;50.600;4.608;2023-06-26T23:15:08;26.70;52.00
22416;DHT22;12204;50.600;4.608;2023-06-26T23:20:13;26.70;52.00
22416;DHT22;12204;50.600;4.608;2023-06-26T23:25:17;26.70;52.10
22416;DHT22;12204;50.600;4.608;2023-06-26T23:30:21;26.70;52.10
22416;DHT22;12204;50.600;4.608;2023-06-26T23:35:26;26.70;52.10
22416;DHT22;12204;50.600;4.608;2023-06-26T23:40:29;26.70;52.10
22416;DHT22;12204;50.600;4.608;2023-06-26T23:45:34;26.70;52.10
22416;DHT22;12204;50.600;4.608;2023-06-26T23:50:40;26.70;52.00
22416;DHT22;12204;50.600;4.608;2023-06-26T23:55:43;26.80;52.10
